createdAt,value
2022-08-21T00:00:20.913Z,1.00
2022-08-21T00:05:52.433Z,0.00
2022-08-21T00:11:24.412Z,1.00
2022-08-21T00:17:02.145Z,1.00
2022-08-21T00:22:34.343Z,1.00
2022-08-21T00:28:06.441Z,1.00
2022-08-21T00:33:37.970Z,0.00
2022-08-21T00:39:10.195Z,1.00
2022-08-21T00:44:42.428Z,0.00
2022-08-21T00:50:21.397Z,1.00
2022-08-21T00:55:46.223Z,1.00
2022-08-21T01:01:18.431Z,1.00
2022-08-21T01:06:50.137Z,0.00
2022-08-21T01:12:21.753Z,0.00
2022-08-21T01:17:59.522Z,1.00
2022-08-21T01:23:37.166Z,0.00
2022-08-21T01:29:09.130Z,0.00
2022-08-21T01:34:46.966Z,0.00
2022-08-21T01:40:18.660Z,1.00
2022-08-21T01:45:50.319Z,0.00
2022-08-21T01:51:22.465Z,0.00
2022-08-21T01:57:00.523Z,1.00
2022-08-21T02:02:32.435Z,0.00
2022-08-21T02:08:10.123Z,1.00
2022-08-21T02:13:47.822Z,1.00
2022-08-21T02:19:25.652Z,1.00
2022-08-21T02:24:57.626Z,0.00
2022-08-21T02:30:29.733Z,0.00
2022-08-21T02:36:01.588Z,1.00
2022-08-21T02:41:33.335Z,0.00
2022-08-21T02:47:05.082Z,0.00
2022-08-21T02:52:42.560Z,0.00
2022-08-21T02:58:14.785Z,0.00
2022-08-21T03:03:46.367Z,0.00
2022-08-21T03:09:18.307Z,0.00
2022-08-21T03:14:50.323Z,0.00
2022-08-21T03:20:28.345Z,0.00
2022-08-21T03:26:00.769Z,0.00
2022-08-21T03:31:32.283Z,0.00
2022-08-21T03:37:04.409Z,1.00
2022-08-21T03:39:15.280Z,1.00
2022-08-21T03:44:47.583Z,4.00
2022-08-21T03:50:19.612Z,9.00
2022-08-21T03:55:52.581Z,31.00
2022-08-21T04:01:24.592Z,100.00
2022-08-21T04:06:56.501Z,198.00
2022-08-21T04:12:28.338Z,306.00
2022-08-21T04:18:00.165Z,449.00
2022-08-21T04:23:32.009Z,658.00
2022-08-21T04:29:03.862Z,916.00
2022-08-21T04:34:35.751Z,1197.00
2022-08-21T04:40:07.924Z,1535.00
2022-08-21T04:45:39.674Z,1899.00
2022-08-21T04:51:11.371Z,2408.00
2022-08-21T04:56:42.889Z,3761.00
2022-08-21T05:07:44.133Z,6962.00
2022-08-21T05:13:15.702Z,7676.00
2022-08-21T05:18:47.493Z,18947.00
2022-08-21T05:24:19.359Z,37889.00
2022-08-21T05:29:51.420Z,37889.00
2022-08-21T05:35:22.920Z,37889.00
2022-08-21T05:40:54.811Z,37889.00
2022-08-21T05:46:26.614Z,37889.00
2022-08-21T05:51:58.493Z,37889.00
2022-08-21T05:57:30.126Z,37889.00
2022-08-21T06:03:02.307Z,37889.00
2022-08-21T06:08:34.029Z,37889.00
2022-08-21T06:14:05.827Z,37889.00
2022-08-21T06:19:37.427Z,37889.00
2022-08-21T06:25:08.975Z,37889.00
2022-08-21T06:30:40.482Z,37889.00
2022-08-21T06:36:12.411Z,37889.00
2022-08-21T06:41:44.101Z,37889.00
2022-08-21T06:47:15.906Z,37889.00
2022-08-21T06:52:48.086Z,37889.00
2022-08-21T06:58:19.702Z,37889.00
2022-08-21T07:03:51.335Z,37889.00
2022-08-21T07:09:24.848Z,37889.00
2022-08-21T07:14:55.119Z,37889.00
2022-08-21T07:20:26.958Z,37889.00
2022-08-21T07:25:58.732Z,37889.00
2022-08-21T07:31:30.827Z,37889.00
2022-08-21T07:37:09.866Z,37889.00
2022-08-21T07:42:34.605Z,37889.00
2022-08-21T07:48:06.177Z,37889.00
2022-08-21T07:53:38.308Z,37889.00
2022-08-21T07:59:10.010Z,37889.00
2022-08-21T08:04:50.927Z,37889.00
2022-08-21T08:10:13.618Z,37889.00
2022-08-21T08:15:45.361Z,37889.00
2022-08-21T08:21:17.280Z,37889.00
2022-08-21T08:26:54.021Z,37889.00
2022-08-21T08:32:21.083Z,37889.00
2022-08-21T08:37:53.065Z,37889.00
2022-08-21T08:43:24.915Z,37889.00
2022-08-21T08:54:26.205Z,37889.00
2022-08-21T08:59:58.013Z,37889.00
2022-08-21T09:05:29.400Z,37889.00
2022-08-21T09:11:01.034Z,37889.00
2022-08-21T09:16:32.726Z,34004.00
2022-08-21T09:33:04.229Z,37889.00
2022-08-21T09:38:35.849Z,37888.00
2022-08-21T09:44:08.015Z,37889.00
2022-08-21T09:49:39.822Z,33846.00
2022-08-21T09:55:12.376Z,22505.00
2022-08-21T10:06:16.002Z,24854.00
2022-08-21T10:11:47.887Z,30412.00
2022-08-21T10:17:20.023Z,30815.00
2022-08-21T10:22:52.190Z,27530.00
2022-08-21T10:33:55.692Z,30744.00
2022-08-21T10:39:35.542Z,37889.00
2022-08-21T10:44:59.394Z,27521.00
2022-08-21T10:50:31.172Z,27062.00
2022-08-21T10:56:02.860Z,21821.00
2022-08-21T11:01:34.688Z,12069.00
2022-08-21T11:07:09.247Z,12759.00
2022-08-21T11:12:38.233Z,20123.00
2022-08-21T11:18:10.089Z,14308.00
2022-08-21T11:23:41.837Z,20389.00
2022-08-21T11:29:13.735Z,21473.00
2022-08-21T11:34:45.402Z,19976.00
2022-08-21T11:40:17.376Z,21458.00
2022-08-21T11:45:49.030Z,18174.00
2022-08-21T11:51:20.775Z,25221.00
2022-08-21T11:56:52.564Z,26142.00
2022-08-21T12:02:24.274Z,24722.00
2022-08-21T12:07:59.258Z,27426.00
2022-08-21T12:13:39.768Z,28306.00
2022-08-21T12:18:59.812Z,24347.00
2022-08-21T12:30:03.216Z,19136.00
2022-08-21T12:35:35.327Z,18944.00
2022-08-21T12:41:07.137Z,20312.00
2022-08-21T12:46:38.486Z,22911.00
2022-08-21T12:52:09.919Z,26155.00
2022-08-21T12:54:31.941Z,27840.00
2022-08-21T13:00:03.401Z,26554.00
2022-08-21T13:05:36.124Z,23222.00
2022-08-21T13:11:09.279Z,21069.00
2022-08-21T13:16:39.482Z,22065.00
2022-08-21T13:29:55.883Z,17097.00
2022-08-21T13:35:27.325Z,15943.00
2022-08-21T13:46:31.125Z,15459.00
2022-08-21T13:52:02.753Z,15042.00
2022-08-21T13:57:34.468Z,16619.00
2022-08-21T14:08:38.362Z,13900.00
2022-08-21T14:14:10.196Z,15547.00
2022-08-21T14:19:41.838Z,15140.00
2022-08-21T14:25:13.698Z,14003.00
2022-08-21T14:30:45.534Z,14905.00
2022-08-21T14:36:18.955Z,15400.00
2022-08-21T14:41:50.600Z,14093.00
2022-08-21T14:47:22.439Z,13901.00
2022-08-21T14:52:54.166Z,11929.00
2022-08-21T14:58:25.820Z,11262.00
2022-08-21T15:03:57.620Z,10813.00
2022-08-21T15:15:01.498Z,10837.00
2022-08-21T15:20:33.018Z,10803.00
2022-08-21T15:26:04.958Z,10416.00
2022-08-21T15:31:36.513Z,10303.00
2022-08-21T15:37:08.638Z,9966.00
2022-08-21T15:42:40.136Z,9777.00
2022-08-21T15:48:12.007Z,9156.00
2022-08-21T15:53:44.085Z,7461.00
2022-08-21T15:59:16.597Z,8696.00
2022-08-21T16:04:48.287Z,4305.00
2022-08-21T16:10:19.719Z,8170.00
2022-08-21T16:15:51.597Z,8106.00
2022-08-21T16:21:23.129Z,8311.00
2022-08-21T16:26:57.903Z,7630.00
2022-08-21T16:32:26.879Z,7202.00
2022-08-21T16:37:58.838Z,6846.00
2022-08-21T16:43:30.074Z,6546.00
2022-08-21T16:49:01.507Z,6286.00
2022-08-21T16:54:33.644Z,5997.00
2022-08-21T17:00:05.187Z,5670.00
2022-08-21T17:05:37.064Z,5314.00
2022-08-21T17:11:08.720Z,4919.00
2022-08-21T17:16:40.479Z,4542.00
2022-08-21T17:22:11.936Z,4184.00
2022-08-21T17:27:44.410Z,3826.00
2022-08-21T17:33:16.057Z,3437.00
2022-08-21T17:38:47.890Z,3098.00
2022-08-21T17:44:19.964Z,2713.00
2022-08-21T17:49:52.307Z,2345.00
2022-08-21T17:55:23.940Z,1956.00
2022-08-21T18:00:55.670Z,1605.00
2022-08-21T18:06:27.559Z,1044.00
2022-08-21T18:11:59.193Z,621.00
2022-08-21T18:17:30.872Z,350.00
2022-08-21T18:23:02.712Z,186.00
2022-08-21T18:28:34.438Z,94.00
2022-08-21T18:34:06.536Z,43.00
2022-08-21T18:39:38.458Z,18.00
2022-08-21T18:45:09.932Z,7.00
2022-08-21T18:50:41.733Z,2.00
2022-08-21T18:56:15.873Z,2.00
2022-08-21T19:01:48.248Z,1.00
2022-08-21T19:07:17.859Z,1.00
2022-08-21T19:12:49.773Z,0.00
2022-08-21T19:18:25.739Z,0.00
2022-08-21T19:23:53.620Z,0.00
2022-08-21T19:29:35.135Z,0.00
2022-08-21T19:34:58.079Z,0.00
2022-08-21T19:40:30.139Z,0.00
2022-08-21T19:46:02.171Z,0.00
2022-08-21T19:51:34.155Z,0.00
2022-08-21T19:57:06.657Z,0.00
2022-08-21T20:02:38.553Z,1.00
2022-08-21T20:10:32.408Z,0.00
2022-08-21T20:16:04.118Z,0.00
2022-08-21T20:21:43.717Z,1.00
2022-08-21T20:27:07.840Z,0.00
2022-08-21T20:32:39.627Z,1.00
2022-08-21T20:38:11.682Z,1.00
2022-08-21T20:43:43.640Z,1.00
2022-08-21T20:49:15.718Z,1.00
2022-08-21T20:54:47.877Z,0.00
2022-08-21T21:00:20.144Z,1.00
2022-08-21T21:05:51.827Z,0.00
2022-08-21T21:11:23.596Z,1.00
2022-08-21T21:16:55.315Z,1.00
2022-08-21T21:22:27.063Z,0.00
2022-08-21T21:27:58.899Z,0.00
2022-08-21T21:33:30.755Z,0.00
2022-08-21T21:39:02.813Z,0.00
2022-08-21T21:44:34.829Z,1.00
2022-08-21T21:50:06.803Z,1.00
2022-08-21T21:55:38.545Z,1.00
2022-08-21T22:01:10.953Z,0.00
2022-08-21T22:06:42.713Z,0.00
2022-08-21T22:12:14.341Z,0.00
2022-08-21T22:17:46.201Z,0.00
2022-08-21T22:23:18.117Z,0.00
2022-08-21T22:28:49.648Z,0.00
2022-08-21T22:34:21.244Z,1.00
2022-08-21T22:39:52.963Z,1.00
2022-08-21T22:45:25.033Z,0.00
2022-08-21T22:50:56.616Z,1.00
2022-08-21T22:56:28.869Z,1.00
2022-08-21T23:07:30.208Z,1.00
2022-08-21T23:13:02.176Z,1.00
2022-08-21T23:18:33.979Z,1.00
2022-08-21T23:24:05.728Z,0.00
2022-08-21T23:29:37.798Z,1.00
2022-08-21T23:35:09.647Z,0.00
2022-08-21T23:46:13.411Z,0.00
2022-08-21T23:51:45.326Z,1.00
2022-08-21T23:57:23.234Z,0.00
